sensor_id;sensor_type;location;lat;lon;timestamp;pressure;altitude;pressure_sealevel;temperature;humidity
40838;BME280;29632;49.168;9.848;2022-11-20T00:02:03;96229.94;;;9.91;52.16
40838;BME280;29632;49.168;9.848;2022-11-20T00:04:29;96230.59;;;9.93;52.26
40838;BME280;29632;49.168;9.848;2022-11-20T00:06:55;96222.78;;;9.93;52.37
40838;BME280;29632;49.168;9.848;2022-11-20T00:09:20;96227.19;;;9.93;52.28
40838;BME280;29632;49.168;9.848;2022-11-20T00:11:46;96225.41;;;9.93;52.23
40838;BME280;29632;49.168;9.848;2022-11-20T00:14:12;96228.66;;;9.95;52.59
40838;BME280;29632;49.168;9.848;2022-11-20T00:16:37;96231.09;;;9.97;52.65
40838;BME280;29632;49.168;9.848;2022-11-20T00:19:03;96231.63;;;10.00;52.45
40838;BME280;29632;49.168;9.848;2022-11-20T00:21:29;96224.31;;;10.04;52.38
40838;BME280;29632;49.168;9.848;2022-11-20T00:23:56;96223.38;;;10.05;52.48
40838;BME280;29632;49.168;9.848;2022-11-20T00:26:23;96229.38;;;10.06;51.95
40838;BME280;29632;49.168;9.848;2022-11-20T00:28:51;96230.19;;;10.06;52.08
40838;BME280;29632;49.168;9.848;2022-11-20T00:31:17;96227.56;;;10.06;52.18
40838;BME280;29632;49.168;9.848;2022-11-20T00:33:43;96223.38;;;10.05;52.43
40838;BME280;29632;49.168;9.848;2022-11-20T00:36:11;96228.41;;;10.07;52.14
40838;BME280;29632;49.168;9.848;2022-11-20T00:38:37;96221.06;;;10.02;52.46
40838;BME280;29632;49.168;9.848;2022-11-20T00:41:05;96223.66;;;10.02;52.34
40838;BME280;29632;49.168;9.848;2022-11-20T00:43:31;96228.34;;;9.98;52.53
40838;BME280;29632;49.168;9.848;2022-11-20T00:45:58;96214.69;;;9.96;52.55
40838;BME280;29632;49.168;9.848;2022-11-20T00:48:24;96220.19;;;9.93;52.83
40838;BME280;29632;49.168;9.848;2022-11-20T00:50:50;96232.53;;;9.91;52.78
40838;BME280;29632;49.168;9.848;2022-11-20T00:53:15;96230.75;;;9.92;52.82
40838;BME280;29632;49.168;9.848;2022-11-20T00:55:41;96229.47;;;9.96;52.79
40838;BME280;29632;49.168;9.848;2022-11-20T00:58:07;96230.81;;;10.00;52.92
40838;BME280;29632;49.168;9.848;2022-11-20T01:00:32;96224.47;;;10.02;52.54
40838;BME280;29632;49.168;9.848;2022-11-20T01:02:58;96226.78;;;10.06;52.32
40838;BME280;29632;49.168;9.848;2022-11-20T01:05:24;96231.00;;;10.07;52.59
40838;BME280;29632;49.168;9.848;2022-11-20T01:07:49;96231.00;;;10.07;52.54
40838;BME280;29632;49.168;9.848;2022-11-20T01:10:15;96230.31;;;10.05;52.19
40838;BME280;29632;49.168;9.848;2022-11-20T01:12:40;96232.94;;;10.05;52.63
40838;BME280;29632;49.168;9.848;2022-11-20T01:15:06;96235.88;;;10.01;52.37
40838;BME280;29632;49.168;9.848;2022-11-20T01:17:33;96242.03;;;10.00;52.78
40838;BME280;29632;49.168;9.848;2022-11-20T01:19:59;96241.88;;;10.02;52.42
40838;BME280;29632;49.168;9.848;2022-11-20T01:22:24;96244.63;;;10.00;53.04
40838;BME280;29632;49.168;9.848;2022-11-20T01:24:50;96238.75;;;9.98;52.58
40838;BME280;29632;49.168;9.848;2022-11-20T01:27:15;96239.88;;;9.96;52.52
40838;BME280;29632;49.168;9.848;2022-11-20T01:29:41;96240.72;;;9.96;52.73
40838;BME280;29632;49.168;9.848;2022-11-20T01:32:07;96237.81;;;9.99;52.96
40838;BME280;29632;49.168;9.848;2022-11-20T01:34:32;96243.81;;;10.00;53.01
40838;BME280;29632;49.168;9.848;2022-11-20T01:36:58;96229.31;;;9.97;52.64
40838;BME280;29632;49.168;9.848;2022-11-20T01:39:25;96233.84;;;9.95;53.08
40838;BME280;29632;49.168;9.848;2022-11-20T01:41:52;96238.69;;;9.90;52.78
40838;BME280;29632;49.168;9.848;2022-11-20T01:44:52;96236.09;;;9.90;52.59
40838;BME280;29632;49.168;9.848;2022-11-20T01:49:56;96224.53;;;9.85;53.02
40838;BME280;29632;49.168;9.848;2022-11-20T01:52:27;96220.97;;;9.86;52.86
40838;BME280;29632;49.168;9.848;2022-11-20T01:55:09;96218.19;;;9.87;52.79
40838;BME280;29632;49.168;9.848;2022-11-20T01:57:36;96227.50;;;9.90;52.92
40838;BME280;29632;49.168;9.848;2022-11-20T02:00:07;96228.16;;;9.92;53.12
40838;BME280;29632;49.168;9.848;2022-11-20T02:02:34;96220.19;;;9.93;53.24
40838;BME280;29632;49.168;9.848;2022-11-20T02:05:04;96218.09;;;9.97;52.75
40838;BME280;29632;49.168;9.848;2022-11-20T02:07:36;96216.81;;;10.01;53.00
40838;BME280;29632;49.168;9.848;2022-11-20T02:10:02;96221.06;;;10.02;52.84
40838;BME280;29632;49.168;9.848;2022-11-20T02:12:28;96219.13;;;10.04;52.64
40838;BME280;29632;49.168;9.848;2022-11-20T02:15:12;96215.56;;;10.05;52.79
40838;BME280;29632;49.168;9.848;2022-11-20T02:17:38;96220.59;;;10.07;52.56
40838;BME280;29632;49.168;9.848;2022-11-20T02:20:04;96219.63;;;10.08;52.73
40838;BME280;29632;49.168;9.848;2022-11-20T02:22:46;96217.03;;;10.08;52.53
40838;BME280;29632;49.168;9.848;2022-11-20T02:25:13;96215.91;;;10.10;52.45
40838;BME280;29632;49.168;9.848;2022-11-20T02:27:39;96207.78;;;10.13;52.83
40838;BME280;29632;49.168;9.848;2022-11-20T02:30:06;96207.47;;;10.16;52.75
40838;BME280;29632;49.168;9.848;2022-11-20T02:32:38;96209.75;;;10.19;52.58
40838;BME280;29632;49.168;9.848;2022-11-20T02:35:08;96214.81;;;10.21;52.49
40838;BME280;29632;49.168;9.848;2022-11-20T02:37:37;96207.81;;;10.21;52.45
40838;BME280;29632;49.168;9.848;2022-11-20T02:40:04;96201.16;;;10.19;52.77
40838;BME280;29632;49.168;9.848;2022-11-20T02:42:30;96203.91;;;10.17;52.94
40838;BME280;29632;49.168;9.848;2022-11-20T02:44:55;96199.81;;;10.15;52.45
40838;BME280;29632;49.168;9.848;2022-11-20T02:47:21;96206.97;;;10.13;53.06
40838;BME280;29632;49.168;9.848;2022-11-20T02:49:47;96195.59;;;10.14;52.74
40838;BME280;29632;49.168;9.848;2022-11-20T02:52:12;96203.41;;;10.14;52.91
40838;BME280;29632;49.168;9.848;2022-11-20T02:54:38;96210.22;;;10.15;52.94
40838;BME280;29632;49.168;9.848;2022-11-20T02:57:03;96197.06;;;10.16;52.71
40838;BME280;29632;49.168;9.848;2022-11-20T02:59:29;96192.69;;;10.17;52.80
40838;BME280;29632;49.168;9.848;2022-11-20T03:01:55;96207.78;;;10.13;53.07
40838;BME280;29632;49.168;9.848;2022-11-20T03:04:20;96197.34;;;10.05;53.21
40838;BME280;29632;49.168;9.848;2022-11-20T03:06:46;96199.94;;;10.05;53.41
40838;BME280;29632;49.168;9.848;2022-11-20T03:09:12;96193.09;;;10.04;53.28
40838;BME280;29632;49.168;9.848;2022-11-20T03:11:38;96194.91;;;10.04;53.50
40838;BME280;29632;49.168;9.848;2022-11-20T03:14:04;96193.75;;;10.06;53.35
40838;BME280;29632;49.168;9.848;2022-11-20T03:16:31;96199.78;;;10.07;53.09
40838;BME280;29632;49.168;9.848;2022-11-20T03:18:57;96201.56;;;10.06;53.15
40838;BME280;29632;49.168;9.848;2022-11-20T03:21:22;96197.50;;;10.04;53.53
40838;BME280;29632;49.168;9.848;2022-11-20T03:23:48;96201.19;;;10.01;53.08
40838;BME280;29632;49.168;9.848;2022-11-20T03:28:42;96183.00;;;10.01;53.52
40838;BME280;29632;49.168;9.848;2022-11-20T03:31:14;96189.69;;;10.04;53.36
40838;BME280;29632;49.168;9.848;2022-11-20T03:33:41;96192.00;;;10.07;53.15
40838;BME280;29632;49.168;9.848;2022-11-20T03:36:09;96192.00;;;10.07;53.29
40838;BME280;29632;49.168;9.848;2022-11-20T03:38:36;96193.91;;;10.05;53.36
40838;BME280;29632;49.168;9.848;2022-11-20T03:41:03;96189.53;;;10.05;53.14
40838;BME280;29632;49.168;9.848;2022-11-20T03:43:29;96190.03;;;10.09;53.50
40838;BME280;29632;49.168;9.848;2022-11-20T03:45:55;96193.16;;;10.12;53.15
40838;BME280;29632;49.168;9.848;2022-11-20T03:48:21;96194.25;;;10.10;53.19
40838;BME280;29632;49.168;9.848;2022-11-20T03:50:47;96186.94;;;10.05;53.42
40838;BME280;29632;49.168;9.848;2022-11-20T03:53:16;96185.44;;;10.02;53.65
40838;BME280;29632;49.168;9.848;2022-11-20T03:55:42;96185.44;;;10.02;53.42
40838;BME280;29632;49.168;9.848;2022-11-20T03:58:08;96186.28;;;10.03;53.23
40838;BME280;29632;49.168;9.848;2022-11-20T04:00:34;96186.59;;;10.00;53.41
40838;BME280;29632;49.168;9.848;2022-11-20T04:03:01;96183.00;;;10.01;53.41
40838;BME280;29632;49.168;9.848;2022-11-20T04:05:26;96182.84;;;10.02;53.46
40838;BME280;29632;49.168;9.848;2022-11-20T04:07:52;96184.13;;;9.98;53.47
40838;BME280;29632;49.168;9.848;2022-11-20T04:10:18;96185.09;;;9.97;53.76
40838;BME280;29632;49.168;9.848;2022-11-20T04:12:43;96185.09;;;9.97;53.86
40838;BME280;29632;49.168;9.848;2022-11-20T04:15:09;96178.63;;;10.01;53.76
40838;BME280;29632;49.168;9.848;2022-11-20T04:17:35;96178.47;;;10.03;53.75
40838;BME280;29632;49.168;9.848;2022-11-20T04:20:01;96177.78;;;10.01;53.82
40838;BME280;29632;49.168;9.848;2022-11-20T04:22:27;96173.44;;;10.01;53.33
40838;BME280;29632;49.168;9.848;2022-11-20T04:24:52;96180.25;;;10.02;53.87
40838;BME280;29632;49.168;9.848;2022-11-20T04:27:18;96176.03;;;10.01;53.55
40838;BME280;29632;49.168;9.848;2022-11-20T04:29:44;96175.03;;;10.02;53.52
40838;BME280;29632;49.168;9.848;2022-11-20T04:32:09;96173.09;;;10.05;53.59
40838;BME280;29632;49.168;9.848;2022-11-20T04:34:35;96174.88;;;10.04;53.57
40838;BME280;29632;49.168;9.848;2022-11-20T04:37:01;96172.28;;;10.04;54.00
40838;BME280;29632;49.168;9.848;2022-11-20T04:39:26;96172.78;;;10.08;53.63
40838;BME280;29632;49.168;9.848;2022-11-20T04:41:52;96170.03;;;10.09;53.56
40838;BME280;29632;49.168;9.848;2022-11-20T04:44:38;96168.59;;;10.15;53.74
40838;BME280;29632;49.168;9.848;2022-11-20T04:47:03;96167.47;;;10.17;53.39
40838;BME280;29632;49.168;9.848;2022-11-20T04:49:29;96169.09;;;10.18;53.51
40838;BME280;29632;49.168;9.848;2022-11-20T04:51:55;96166.03;;;10.23;53.68
40838;BME280;29632;49.168;9.848;2022-11-20T04:54:20;96166.38;;;10.28;53.77
40838;BME280;29632;49.168;9.848;2022-11-20T04:56:50;96158.94;;;10.33;53.37
40838;BME280;29632;49.168;9.848;2022-11-20T04:59:16;96169.50;;;10.32;53.45
40838;BME280;29632;49.168;9.848;2022-11-20T05:01:41;96165.78;;;10.34;53.75
40838;BME280;29632;49.168;9.848;2022-11-20T05:04:07;96179.47;;;10.36;53.44
40838;BME280;29632;49.168;9.848;2022-11-20T05:06:33;96164.00;;;10.35;53.55
40838;BME280;29632;49.168;9.848;2022-11-20T05:08:58;96177.81;;;10.35;53.47
40838;BME280;29632;49.168;9.848;2022-11-20T05:11:24;96173.91;;;10.31;53.63
40838;BME280;29632;49.168;9.848;2022-11-20T05:13:50;96175.47;;;10.24;53.81
40838;BME280;29632;49.168;9.848;2022-11-20T05:16:23;96177.88;;;10.17;53.98
40838;BME280;29632;49.168;9.848;2022-11-20T05:18:50;96176.38;;;10.15;53.89
40838;BME280;29632;49.168;9.848;2022-11-20T05:21:16;96172.34;;;10.12;53.84
40838;BME280;29632;49.168;9.848;2022-11-20T05:23:43;96177.22;;;10.15;53.90
40838;BME280;29632;49.168;9.848;2022-11-20T05:26:13;96176.38;;;10.15;54.14
40838;BME280;29632;49.168;9.848;2022-11-20T05:28:39;96173.78;;;10.15;53.80
40838;BME280;29632;49.168;9.848;2022-11-20T05:31:09;96175.75;;;10.13;54.10
40838;BME280;29632;49.168;9.848;2022-11-20T05:33:36;96166.78;;;10.07;54.14
40838;BME280;29632;49.168;9.848;2022-11-20T05:36:03;96163.81;;;10.02;54.16
40838;BME280;29632;49.168;9.848;2022-11-20T05:38:29;96168.69;;;9.97;54.53
40838;BME280;29632;49.168;9.848;2022-11-20T05:40:55;96172.41;;;9.94;54.25
40838;BME280;29632;49.168;9.848;2022-11-20T05:43:20;96171.72;;;9.92;53.96
40838;BME280;29632;49.168;9.848;2022-11-20T05:45:53;96170.91;;;9.92;54.11
40838;BME280;29632;49.168;9.848;2022-11-20T05:48:19;96174.03;;;9.95;53.91
40838;BME280;29632;49.168;9.848;2022-11-20T05:50:45;96174.03;;;9.95;54.21
40838;BME280;29632;49.168;9.848;2022-11-20T05:53:11;96175.16;;;9.93;53.68
40838;BME280;29632;49.168;9.848;2022-11-20T05:55:36;96171.44;;;9.95;54.11
40838;BME280;29632;49.168;9.848;2022-11-20T05:58:02;96176.31;;;9.98;53.87
40838;BME280;29632;49.168;9.848;2022-11-20T06:00:27;96174.38;;;10.00;53.86
40838;BME280;29632;49.168;9.848;2022-11-20T06:02:53;96172.44;;;10.02;53.86
40838;BME280;29632;49.168;9.848;2022-11-20T06:05:19;96173.28;;;10.03;53.41
40838;BME280;29632;49.168;9.848;2022-11-20T06:07:44;96177.78;;;10.01;53.96
40838;BME280;29632;49.168;9.848;2022-11-20T06:10:10;96182.84;;;10.02;53.64
40838;BME280;29632;49.168;9.848;2022-11-20T06:12:36;96185.78;;;10.08;53.76
40838;BME280;29632;49.168;9.848;2022-11-20T06:15:03;96182.75;;;10.12;53.63
40838;BME280;29632;49.168;9.848;2022-11-20T06:17:28;96181.28;;;10.18;53.56
40838;BME280;29632;49.168;9.848;2022-11-20T06:19:54;96182.44;;;10.24;53.62
40838;BME280;29632;49.168;9.848;2022-11-20T06:22:20;96177.75;;;10.27;53.70
40838;BME280;29632;49.168;9.848;2022-11-20T06:24:45;96177.44;;;10.30;53.46
40838;BME280;29632;49.168;9.848;2022-11-20T06:27:11;96171.97;;;10.33;53.26
40838;BME280;29632;49.168;9.848;2022-11-20T06:29:36;96172.31;;;10.38;53.62
40838;BME280;29632;49.168;9.848;2022-11-20T06:32:02;96180.16;;;10.47;53.57
40838;BME280;29632;49.168;9.848;2022-11-20T06:34:28;96168.28;;;10.52;53.42
40838;BME280;29632;49.168;9.848;2022-11-20T06:36:53;96169.59;;;10.56;53.61
40838;BME280;29632;49.168;9.848;2022-11-20T06:39:19;96172.69;;;10.60;53.11
40838;BME280;29632;49.168;9.848;2022-11-20T06:41:45;96177.09;;;10.60;53.30
40838;BME280;29632;49.168;9.848;2022-11-20T06:44:10;96178.53;;;10.62;53.45
40838;BME280;29632;49.168;9.848;2022-11-20T06:46:36;96179.03;;;10.66;53.49
40838;BME280;29632;49.168;9.848;2022-11-20T06:49:02;96185.59;;;10.70;53.33
40838;BME280;29632;49.168;9.848;2022-11-20T06:51:28;96194.84;;;10.72;53.38
40838;BME280;29632;49.168;9.848;2022-11-20T06:53:53;96200.25;;;10.79;53.27
40838;BME280;29632;49.168;9.848;2022-11-20T06:56:19;96192.78;;;10.84;53.44
40838;BME280;29632;49.168;9.848;2022-11-20T06:58:45;96197.81;;;10.86;53.35
40838;BME280;29632;49.168;9.848;2022-11-20T07:01:12;96194.41;;;10.85;53.46
40838;BME280;29632;49.168;9.848;2022-11-20T07:03:38;96199.13;;;10.82;53.52
40838;BME280;29632;49.168;9.848;2022-11-20T07:06:05;96206.59;;;10.76;53.50
40838;BME280;29632;49.168;9.848;2022-11-20T07:08:31;96202.50;;;10.74;53.54
40838;BME280;29632;49.168;9.848;2022-11-20T07:10:58;96197.47;;;10.72;53.38
40838;BME280;29632;49.168;9.848;2022-11-20T07:13:25;96203.31;;;10.74;53.80
40838;BME280;29632;49.168;9.848;2022-11-20T07:15:51;96204.00;;;10.76;53.83
40838;BME280;29632;49.168;9.848;2022-11-20T07:18:17;96194.06;;;10.80;53.78
40838;BME280;29632;49.168;9.848;2022-11-20T07:20:42;96200.09;;;10.81;53.40
40838;BME280;29632;49.168;9.848;2022-11-20T07:23:08;96203.34;;;10.83;53.63
40838;BME280;29632;49.168;9.848;2022-11-20T07:25:33;96201.72;;;10.82;53.68
40838;BME280;29632;49.168;9.848;2022-11-20T07:27:59;96205.16;;;10.82;53.65
40838;BME280;29632;49.168;9.848;2022-11-20T07:30:29;96212.31;;;10.80;53.68
40838;BME280;29632;49.168;9.848;2022-11-20T07:32:56;96205.47;;;10.79;53.85
40838;BME280;29632;49.168;9.848;2022-11-20T07:35:22;96208.38;;;10.76;53.77
40838;BME280;29632;49.168;9.848;2022-11-20T07:37:48;96210.16;;;10.75;53.91
40838;BME280;29632;49.168;9.848;2022-11-20T07:40:15;96208.53;;;10.74;53.77
40838;BME280;29632;49.168;9.848;2022-11-20T07:42:51;96211.81;;;10.76;53.77
40838;BME280;29632;49.168;9.848;2022-11-20T07:45:21;96204.78;;;10.69;53.87
40838;BME280;29632;49.168;9.848;2022-11-20T07:47:47;96207.88;;;10.64;53.71
40838;BME280;29632;49.168;9.848;2022-11-20T07:50:13;96208.53;;;10.66;53.59
40838;BME280;29632;49.168;9.848;2022-11-20T07:52:39;96213.88;;;10.65;53.90
40838;BME280;29632;49.168;9.848;2022-11-20T07:55:06;96217.94;;;10.59;53.84
40838;BME280;29632;49.168;9.848;2022-11-20T07:57:32;96213.34;;;10.53;54.03
40838;BME280;29632;49.168;9.848;2022-11-20T07:59:58;96223.56;;;10.46;53.78
40838;BME280;29632;49.168;9.848;2022-11-20T08:02:23;96212.16;;;10.39;54.15
40838;BME280;29632;49.168;9.848;2022-11-20T08:04:49;96220.06;;;10.29;54.08
40838;BME280;29632;49.168;9.848;2022-11-20T08:07:15;96213.84;;;10.22;54.39
40838;BME280;29632;49.168;9.848;2022-11-20T08:09:41;96216.91;;;10.17;54.33
40838;BME280;29632;49.168;9.848;2022-11-20T08:12:06;96215.25;;;10.08;54.48
40838;BME280;29632;49.168;9.848;2022-11-20T08:14:51;96216.47;;;9.96;54.60
40838;BME280;29632;49.168;9.848;2022-11-20T08:17:16;96218.38;;;9.86;54.88
40838;BME280;29632;49.168;9.848;2022-11-20T08:19:42;96217.16;;;9.80;54.79
40838;BME280;29632;49.168;9.848;2022-11-20T08:22:07;96222.00;;;9.75;54.43
40838;BME280;29632;49.168;9.848;2022-11-20T08:24:33;96213.69;;;9.71;54.77
40838;BME280;29632;49.168;9.848;2022-11-20T08:26:59;96221.31;;;9.64;54.43
40838;BME280;29632;49.168;9.848;2022-11-20T08:29:28;96218.50;;;9.58;54.98
40838;BME280;29632;49.168;9.848;2022-11-20T08:31:53;96223.19;;;9.54;54.80
40838;BME280;29632;49.168;9.848;2022-11-20T08:34:19;96219.09;;;9.52;54.81
40838;BME280;29632;49.168;9.848;2022-11-20T08:36:45;96231.13;;;9.53;54.67
40838;BME280;29632;49.168;9.848;2022-11-20T08:39:11;96226.44;;;9.56;54.35
40838;BME280;29632;49.168;9.848;2022-11-20T08:41:37;96229.56;;;9.60;54.63
40838;BME280;29632;49.168;9.848;2022-11-20T08:44:04;96231.72;;;9.64;54.55
40838;BME280;29632;49.168;9.848;2022-11-20T08:46:38;96239.19;;;9.68;54.53
40838;BME280;29632;49.168;9.848;2022-11-20T08:49:08;96234.66;;;9.70;54.46
40838;BME280;29632;49.168;9.848;2022-11-20T08:51:34;96231.59;;;9.74;54.52
40838;BME280;29632;49.168;9.848;2022-11-20T08:54:00;96231.75;;;9.73;54.08
40838;BME280;29632;49.168;9.848;2022-11-20T08:56:25;96234.50;;;9.71;54.19
40838;BME280;29632;49.168;9.848;2022-11-20T08:58:51;96233.03;;;9.69;54.47
40838;BME280;29632;49.168;9.848;2022-11-20T09:01:18;96233.69;;;9.71;54.47
40838;BME280;29632;49.168;9.848;2022-11-20T09:03:45;96230.94;;;9.72;54.29
40838;BME280;29632;49.168;9.848;2022-11-20T09:06:11;96226.69;;;9.71;54.39
40838;BME280;29632;49.168;9.848;2022-11-20T09:08:36;96224.25;;;9.70;54.15
40838;BME280;29632;49.168;9.848;2022-11-20T09:11:03;96229.63;;;9.68;54.69
40838;BME280;29632;49.168;9.848;2022-11-20T09:13:29;96232.06;;;9.70;54.35
40838;BME280;29632;49.168;9.848;2022-11-20T09:16:07;96231.09;;;9.71;54.20
40838;BME280;29632;49.168;9.848;2022-11-20T09:18:34;96233.56;;;9.72;54.52
40838;BME280;29632;49.168;9.848;2022-11-20T09:21:03;96235.19;;;9.73;54.61
40838;BME280;29632;49.168;9.848;2022-11-20T09:23:34;96238.59;;;9.74;54.56
40838;BME280;29632;49.168;9.848;2022-11-20T09:26:04;96231.47;;;9.76;54.57
40838;BME280;29632;49.168;9.848;2022-11-20T09:28:30;96230.50;;;9.77;54.06
40838;BME280;29632;49.168;9.848;2022-11-20T09:30:57;96233.75;;;9.79;54.12
40838;BME280;29632;49.168;9.848;2022-11-20T09:33:22;96233.28;;;9.83;54.56
40838;BME280;29632;49.168;9.848;2022-11-20T09:35:48;96232.03;;;9.88;54.28
40838;BME280;29632;49.168;9.848;2022-11-20T09:38:13;96233.50;;;9.90;54.16
40838;BME280;29632;49.168;9.848;2022-11-20T09:41:03;96233.66;;;9.89;54.32
40838;BME280;29632;49.168;9.848;2022-11-20T09:43:45;96240.34;;;9.91;54.50
40838;BME280;29632;49.168;9.848;2022-11-20T09:46:20;96234.34;;;9.91;54.57
40838;BME280;29632;49.168;9.848;2022-11-20T09:51:46;96232.41;;;9.93;54.76
40838;BME280;29632;49.168;9.848;2022-11-20T09:54:18;96234.84;;;9.94;54.68
40838;BME280;29632;49.168;9.848;2022-11-20T09:56:50;96232.06;;;9.96;54.23
40838;BME280;29632;49.168;9.848;2022-11-20T09:59:26;96234.38;;;9.99;54.47
40838;BME280;29632;49.168;9.848;2022-11-20T10:01:54;96238.47;;;10.01;54.60
40838;BME280;29632;49.168;9.848;2022-11-20T10:04:20;96246.13;;;10.03;54.40
40838;BME280;29632;49.168;9.848;2022-11-20T10:07:19;96243.19;;;10.06;54.74
40838;BME280;29632;49.168;9.848;2022-11-20T10:09:52;96236.06;;;10.08;54.59
40838;BME280;29632;49.168;9.848;2022-11-20T10:12:37;96237.38;;;10.12;54.85
40838;BME280;29632;49.168;9.848;2022-11-20T10:15:31;96241.16;;;10.18;54.62
40838;BME280;29632;49.168;9.848;2022-11-20T10:18:16;96236.59;;;10.20;54.40
40838;BME280;29632;49.168;9.848;2022-11-20T10:21:05;96229.00;;;10.27;54.20
40838;BME280;29632;49.168;9.848;2022-11-20T10:23:59;96231.16;;;10.31;54.65
40838;BME280;29632;49.168;9.848;2022-11-20T10:26:42;96226.63;;;10.33;54.26
40838;BME280;29632;49.168;9.848;2022-11-20T10:29:18;96223.72;;;10.36;54.30
40838;BME280;29632;49.168;9.848;2022-11-20T10:31:50;96226.16;;;10.38;54.40
40838;BME280;29632;49.168;9.848;2022-11-20T10:34:30;96228.28;;;10.43;54.43
40838;BME280;29632;49.168;9.848;2022-11-20T10:37:03;96224.56;;;10.45;54.07
40838;BME280;29632;49.168;9.848;2022-11-20T10:40:04;96227.66;;;10.49;54.08
40838;BME280;29632;49.168;9.848;2022-11-20T10:47:49;96222.47;;;10.57;54.18
40838;BME280;29632;49.168;9.848;2022-11-20T10:50:18;96220.38;;;10.61;54.31
40838;BME280;29632;49.168;9.848;2022-11-20T11:00:24;96217.09;;;10.58;54.42
40838;BME280;29632;49.168;9.848;2022-11-20T11:02:52;96214.50;;;10.58;54.46
40838;BME280;29632;49.168;9.848;2022-11-20T11:05:36;96211.59;;;10.62;54.45
40838;BME280;29632;49.168;9.848;2022-11-20T11:08:03;96210.28;;;10.66;54.67
40838;BME280;29632;49.168;9.848;2022-11-20T11:13:26;96200.91;;;10.73;54.14
40838;BME280;29632;49.168;9.848;2022-11-20T11:15:53;96200.56;;;10.76;54.54
40838;BME280;29632;49.168;9.848;2022-11-20T11:18:23;96198.09;;;10.74;54.41
40838;BME280;29632;49.168;9.848;2022-11-20T11:20:50;96199.75;;;10.75;54.58
40838;BME280;29632;49.168;9.848;2022-11-20T11:23:29;96198.94;;;10.75;54.65
40838;BME280;29632;49.168;9.848;2022-11-20T11:25:57;96191.44;;;10.72;54.46
40838;BME280;29632;49.168;9.848;2022-11-20T11:28:27;96194.53;;;10.75;54.46
40838;BME280;29632;49.168;9.848;2022-11-20T11:30:53;96193.41;;;10.78;54.41
40838;BME280;29632;49.168;9.848;2022-11-20T11:33:21;96185.59;;;10.78;54.47
40838;BME280;29632;49.168;9.848;2022-11-20T11:35:54;96181.06;;;10.80;54.32
40838;BME280;29632;49.168;9.848;2022-11-20T11:38:40;96176.66;;;10.81;54.31
40838;BME280;29632;49.168;9.848;2022-11-20T11:41:09;96177.59;;;10.80;54.55
40838;BME280;29632;49.168;9.848;2022-11-20T11:43:36;96176.50;;;10.82;54.75
40838;BME280;29632;49.168;9.848;2022-11-20T11:49:21;96172.44;;;10.88;54.56
40838;BME280;29632;49.168;9.848;2022-11-20T11:54:24;96161.84;;;10.89;54.51
40838;BME280;29632;49.168;9.848;2022-11-20T11:56:52;96166.91;;;10.91;54.23
40838;BME280;29632;49.168;9.848;2022-11-20T11:59:26;96176.16;;;10.93;54.59
40838;BME280;29632;49.168;9.848;2022-11-20T12:01:59;96167.69;;;10.91;54.23
40838;BME280;29632;49.168;9.848;2022-11-20T12:04:44;96177.47;;;10.89;54.61
40838;BME280;29632;49.168;9.848;2022-11-20T12:07:37;96166.91;;;10.91;54.62
40838;BME280;29632;49.168;9.848;2022-11-20T12:10:04;96169.34;;;10.92;54.48
40838;BME280;29632;49.168;9.848;2022-11-20T12:12:36;96167.88;;;10.90;54.64
40838;BME280;29632;49.168;9.848;2022-11-20T12:15:10;96169.34;;;10.92;54.39
40838;BME280;29632;49.168;9.848;2022-11-20T12:17:36;96169.00;;;10.95;54.69
40838;BME280;29632;49.168;9.848;2022-11-20T12:20:02;96164.94;;;10.93;54.58
40838;BME280;29632;49.168;9.848;2022-11-20T12:22:33;96159.25;;;10.89;54.47
40838;BME280;29632;49.168;9.848;2022-11-20T12:25:22;96166.09;;;10.90;54.38
40838;BME280;29632;49.168;9.848;2022-11-20T12:28:15;96166.56;;;10.86;54.72
40838;BME280;29632;49.168;9.848;2022-11-20T12:33:30;96164.75;;;10.86;54.69
40838;BME280;29632;49.168;9.848;2022-11-20T12:36:18;96159.25;;;10.89;54.90
40838;BME280;29632;49.168;9.848;2022-11-20T12:42:08;96167.38;;;10.86;54.79
40838;BME280;29632;49.168;9.848;2022-11-20T12:45:12;96164.75;;;10.78;54.94
40838;BME280;29632;49.168;9.848;2022-11-20T13:07:22;96154.84;;;10.90;54.82
40838;BME280;29632;49.168;9.848;2022-11-20T13:09:50;96160.88;;;10.90;54.44
40838;BME280;29632;49.168;9.848;2022-11-20T13:12:25;96159.56;;;10.86;54.42
40838;BME280;29632;49.168;9.848;2022-11-20T13:14:55;96151.59;;;10.88;54.58
40838;BME280;29632;49.168;9.848;2022-11-20T13:17:36;96150.47;;;10.90;54.66
40838;BME280;29632;49.168;9.848;2022-11-20T13:20:06;96153.56;;;10.94;54.60
40838;BME280;29632;49.168;9.848;2022-11-20T13:23:04;96161.22;;;11.04;54.22
40838;BME280;29632;49.168;9.848;2022-11-20T13:25:34;96150.47;;;11.07;54.40
40838;BME280;29632;49.168;9.848;2022-11-20T13:28:26;96147.38;;;11.11;54.36
40838;BME280;29632;49.168;9.848;2022-11-20T13:30:54;96150.13;;;11.18;54.27
40838;BME280;29632;49.168;9.848;2022-11-20T13:33:37;96143.63;;;11.22;54.17
40838;BME280;29632;49.168;9.848;2022-11-20T13:36:23;96153.88;;;11.32;54.17
40838;BME280;29632;49.168;9.848;2022-11-20T13:38:53;96148.34;;;11.35;53.81
40838;BME280;29632;49.168;9.848;2022-11-20T13:41:36;96147.03;;;11.39;54.07
40838;BME280;29632;49.168;9.848;2022-11-20T13:44:13;96150.31;;;11.41;54.12
40838;BME280;29632;49.168;9.848;2022-11-20T13:46:44;96147.69;;;11.41;53.77
40838;BME280;29632;49.168;9.848;2022-11-20T13:49:25;96150.31;;;11.41;54.26
40838;BME280;29632;49.168;9.848;2022-11-20T13:51:54;96159.56;;;11.44;54.14
40838;BME280;29632;49.168;9.848;2022-11-20T13:54:56;96154.03;;;11.47;54.02
40838;BME280;29632;49.168;9.848;2022-11-20T14:00:24;96147.38;;;11.36;54.29
40838;BME280;29632;49.168;9.848;2022-11-20T14:05:35;96155.84;;;11.38;54.39
40838;BME280;29632;49.168;9.848;2022-11-20T14:08:03;96147.38;;;11.36;54.22
40838;BME280;29632;49.168;9.848;2022-11-20T14:10:30;96147.38;;;11.36;54.15
40838;BME280;29632;49.168;9.848;2022-11-20T14:12:56;96144.13;;;11.34;54.14
40838;BME280;29632;49.168;9.848;2022-11-20T14:15:25;96143.13;;;11.35;54.05